Aktualne dane pomiarowe

Uwaga, wersja testowa! Automatyczne pobieranie danych za pomocą narzędzi lub skryptów to umożliwiających jest zabronione.

Dane meteo z obszaru Polski uzyskane na podstawie depesz SYNOP pobieranych co godzinę z NWS. Najedź myszką na symbol przedstawiony w tabeli, aby uzyskać informacje co do jego znaczenia. Prosimy pamiętać, że to testowa wersja strony, która jeszcze nie jest ukończona. Stworzono również jest krótki FAQ dotyczący korzystania z tej podstrony Anomalie temperatury w chwili obecnej odniesione są do okresu referencyjnego 1951-2016. Okres ten będzie później zmieniony na 1981-2010. Kliknij ikonę aby pobrać plik CSV. Kliknij ikonę aby wygenerować mapę synoptyczną dla danego terminu.

Wybierz Datę:    

        

Katowice (12560)

Dane terminowe dla wybranej stacji. Kliknij datę, aby otrzymać dane z tego terminu dla wszystkich stacji.

TemperaturaZachmurzenieWiatrCiśnienieOpadyPogoda
 Data t td wb tx tn tg rh  Nt Nl Cl Cm Ch ws wd g1 g2 wx mslp ppp ch 24h 12h t ww ww w1 w2  
2019-07-12 23:00:00 15.1 12.4 13.3--- 8430.0wx-wx1wx--11011.0 978.0 0.1---------
2019-07-12 22:00:00 15.1 12.2 13.1--- 8330.0wx-wx2wx---1011.2 978.2 0.2---------
2019-07-12 21:00:00 15.2 11.8 12.9--- 8030.0wx-wx1wx--11011.0 978.0 0.2---------
2019-07-12 20:00:00 16.4 11.3 13.1--- 7230.0wx-wx2wx--21010.7 977.9 0.2---------
2019-07-12 19:00:00 18.0 11.1 13.7--- 6450.0wx-wx2wx--21010.6 978.0 0.4---------
2019-07-12 18:00:00 18.9 10.7 13.9 24.9 16.3- 5950.0wx-wx3wx--31010.3 977.8 0.0--12wx-w1--
2019-07-12 17:00:00 19.2 9.9 13.6--- 5550.0wxwxwxwx3wx--31010.2 977.7 -0.3---------
2019-07-12 16:00:00 19.3 10.8 14.1--- 5850.0wxwxwxwx3wx--31010.1 977.6 0.3---wx---
2019-07-12 15:00:00 18.8 11.6 14.3--- 6330.0wxwxwx4wx--41010.3 977.8 0.3---wx---
2019-07-12 14:00:00 19.7 10.1 14.0--- 5450.0wxwxwxwx5wx--51010.5 978.0 0.0---------
2019-07-12 13:00:00 23.6 6.4 14.1--- 3330.0wxwxwxwx1wx--11009.3 977.3 -1.1---------
2019-07-12 12:00:00 23.8 5.2 13.7--- 3050.0wxwxwxwx1wx--11009.5 977.5 -1.2- 0.06------
2019-07-12 11:00:00 22.5 6.3 13.6--- 3550.0wxwxwxwx2wx--21010.1 978.0 -1.0---------
2019-07-12 10:00:00 22.5 6.3 13.6--- 3530.0wxwxwxwx3wx--31010.6 978.4 -0.8---------
2019-07-12 09:00:00 21.9 6.1 13.2--- 3630.0wxwxwxwxwx2wx---1010.9 978.7 -0.6---------
2019-07-12 08:00:00 21.3 7.9 13.7--- 4230.0wxwxwxwxwx3wx--31011.3 979.0 -0.3---------
2019-07-12 07:00:00 19.7 9.3 13.6--- 5130.0wx-wxwx2wx--21011.7 979.2 -0.1---------
2019-07-12 06:00:00 16.4 9.1 12.0 18.8 7.3 4 6230.0wx-wxwx1wx-711012.2 979.3 -0.1 1.5 0.012----- 7.5
2019-07-12 05:00:00 10.7 9.9 10.1--- 9530.0wx-wxwx1wx---1012.8 979.3 0.0---------
2019-07-12 04:00:00 8.4 7.5 7.7--- 9430.0wxwxwxwx1wx--11013.1 979.3 -0.2---------
2019-07-12 03:00:00 7.5 6.6 6.8--- 9430.0wx-wx1wx--11013.3 979.4 -0.5---wx---
2019-07-12 02:00:00 8.0 6.9 7.2--- 9330.0wx-wx1wx--11013.2 979.3 -0.9---------
2019-07-12 01:00:00 8.4 7.0 7.4--- 9130.0wx-wx0---01013.3 979.5 -0.7---------
2019-07-12 00:00:00 9.2 7.6 8.1--- 9030.0wx-wx1wx--11013.6 979.9 -0.3- 0.06------
2019-07-11 23:00:00 9.1 7.2 7.8--- 8830.0wx-wx1wx--11014.0 980.2 0.1---------
2019-07-11 22:00:00 9.7 7.1 8.0--- 8450.0wx-1wx--11013.9 980.2 0.5---------
2019-07-11 21:00:00 10.7 7.2 8.5--- 7950.0wx-1wx--11013.8 980.2 0.8---------
2019-07-11 20:00:00 11.7 7.4 9.0--- 7530.0wx-wx1wx--11013.5 980.1 0.8---------
2019-07-11 19:00:00 15.8 7.3 10.9--- 5750.0wx-wx1wx--11012.7 979.7 0.4---------
2019-07-11 18:00:00 18.7 5.5 11.5 21.2 13.5- 4250.0wx-3wx-1031012.0 979.4 0.0- 2.012------
2019-07-11 17:00:00 19.6 5.3 11.9--- 3950.0wxwxwxwx3wx--31011.8 979.3 0.0---------
2019-07-11 16:00:00 20.3 5.9 12.4--- 3950.0wxwxwxwx2wx--21011.7 979.3 0.0---------
2019-07-11 15:00:00 20.6 5.0 12.2--- 3630.0wxwxwxwx2wx-1021011.8 979.4 0.2---------
2019-07-11 14:00:00 20.5 5.3 12.3--- 3730.0wxwxwx2wx-721011.7 979.3 0.0---------
2019-07-11 13:00:00 19.9 5.9 12.2--- 4050.0wxwxwx2wx-1021011.8 979.3 -0.2---------
2019-07-11 12:00:00 19.5 5.9 12.1--- 4130.0wxwxwx2wx7921011.7 979.2 -0.6- 2.06wx-w1--
2019-07-11 11:00:00 18.9 6.0 11.8--- 4350.0wxwxwx2wx-921011.9 979.3 -0.4---------
2019-07-11 10:00:00 18.0 9.3 12.8--- 5730.0wxwxwx3wx8831012.2 979.5 -0.6---------
2019-07-11 09:00:00 16.0 12.7 13.8--- 8120.0wxwxwxwx2wx--21012.7 979.8 -0.5---wx-w1--
2019-07-11 08:00:00 15.9 11.3 12.9--- 7430.0wxwxwxwx4wx--41012.6 979.7 -0.5---wx---
2019-07-11 07:00:00 13.6 10.9 11.8--- 8420.0wxwxwx2wx---1013.3 980.1 0.1---wx-w1--
2019-07-11 06:00:00 13.5 10.5 11.5 15.8 11.0 10 8230.0wxwxwxwx3wx--31013.5 980.3 0.1--12wx-w1- 5.7
2019-07-11 05:00:00 12.8 10.2 11.1--- 8430.0wxwxwxwx2wx--21013.5 980.2 -0.1---------
2019-07-11 04:00:00 11.9 10.1 10.7--- 8915.0wxwxwxwx2wx--21013.4 980.0 -0.5---wx---
2019-07-11 03:00:00 12.7 10.1 11.0--- 8420.0wxwxwx1wx--11013.5 980.2 -0.7---wx---
2019-07-11 02:00:00 12.2 9.6 10.5--- 8450.0wxwxwxwx2wx--21013.7 980.3 -0.8---------
2019-07-11 01:00:00 11.9 9.6 10.4--- 8630.0wxwxwxwx2wx--21013.9 980.5 -0.8---------
2019-07-11 00:00:00 11.1 9.5 10.0--- 9030.0wx-wx2wx--21014.4 980.9 -0.6- 0.06------
1.1 ms

 

Print Friendly, PDF & Email